Aviation Digital Data Service (ADDS)

Output produced by METARs form (1702 UTC 17 October 2017)
found at http://aviationweather.gov/adds/metars/
 
KINT 171120Z 1712/1812 03007KT P6SM SCT250 
     FM180000 VRB02KT P6SM SKC